createdAt,value
2022-08-19T00:01:30.579Z,14.70
2022-08-19T00:03:58.849Z,14.90
2022-08-19T00:06:27.053Z,14.93
2022-08-19T00:08:54.791Z,14.53
2022-08-19T00:11:25.575Z,15.63
2022-08-19T00:13:54.030Z,15.30
2022-08-19T00:16:26.869Z,15.60
2022-08-19T00:18:56.194Z,14.83
2022-08-19T00:21:24.258Z,14.40
2022-08-19T00:23:52.042Z,14.47
2022-08-19T00:26:19.755Z,13.20
2022-08-19T00:28:47.626Z,15.07
2022-08-19T00:31:17.219Z,14.50
2022-08-19T00:33:46.469Z,14.90
2022-08-19T00:36:14.264Z,14.47
2022-08-19T00:38:43.865Z,13.40
2022-08-19T00:41:14.098Z,13.70
2022-08-19T00:43:42.142Z,14.60
2022-08-19T00:46:10.106Z,14.93
2022-08-19T00:48:38.216Z,13.83
2022-08-19T00:51:08.058Z,14.93
2022-08-19T00:53:36.066Z,15.70
2022-08-19T00:56:07.236Z,15.60
2022-08-19T00:58:37.078Z,13.67
2022-08-19T01:01:06.751Z,14.53
2022-08-19T01:03:57.180Z,14.77
2022-08-19T01:06:23.805Z,14.60
2022-08-19T01:08:51.634Z,14.97
2022-08-19T01:11:19.621Z,15.43
2022-08-19T01:13:49.765Z,15.20
2022-08-19T01:16:19.730Z,15.87
2022-08-19T01:18:47.498Z,14.20
2022-08-19T01:21:23.077Z,16.10
2022-08-19T01:23:52.269Z,13.37
2022-08-19T01:26:24.200Z,15.40
2022-08-19T01:28:54.779Z,15.27
2022-08-19T01:31:31.388Z,15.30
2022-08-19T01:34:01.633Z,14.90
2022-08-19T01:36:33.313Z,14.90
2022-08-19T01:39:03.324Z,15.53
2022-08-19T01:41:31.019Z,14.73
2022-08-19T01:44:13.644Z,14.57
2022-08-19T01:46:48.135Z,14.70
2022-08-19T01:49:16.534Z,14.97
2022-08-19T01:51:44.267Z,15.70
2022-08-19T01:54:27.230Z,15.80
2022-08-19T01:56:59.769Z,16.30
2022-08-19T01:59:27.576Z,15.90
2022-08-19T02:01:55.379Z,15.90
2022-08-19T02:04:24.299Z,16.53
2022-08-19T02:06:52.129Z,15.80
2022-08-19T02:09:21.398Z,16.80
2022-08-19T02:11:49.160Z,16.23
2022-08-19T02:14:16.908Z,17.20
2022-08-19T02:16:44.618Z,17.00
2022-08-19T02:19:12.434Z,17.23
2022-08-19T02:21:40.158Z,16.73
2022-08-19T02:24:08.315Z,16.53
2022-08-19T02:26:37.515Z,17.63
2022-08-19T02:29:05.960Z,17.10
2022-08-19T02:31:34.183Z,18.80
2022-08-19T02:34:02.300Z,19.00
2022-08-19T02:36:31.165Z,19.10
2022-08-19T02:38:57.961Z,19.60
2022-08-19T02:41:27.861Z,20.10
2022-08-19T02:44:22.936Z,18.40
2022-08-19T02:46:49.028Z,18.77
2022-08-19T02:49:19.869Z,20.03
2022-08-19T02:51:48.463Z,19.37
2022-08-19T02:54:16.908Z,18.53
2022-08-19T02:56:45.896Z,19.70
2022-08-19T02:59:15.010Z,19.50
2022-08-19T03:01:43.883Z,19.53
2022-08-19T03:04:14.512Z,19.50
2022-08-19T03:06:44.169Z,20.20
2022-08-19T03:09:13.284Z,20.80
2022-08-19T03:11:41.430Z,21.37
2022-08-19T03:14:11.420Z,21.70
2022-08-19T03:16:45.127Z,22.00
2022-08-19T03:19:13.074Z,22.73
2022-08-19T03:21:40.823Z,20.80
2022-08-19T03:24:10.330Z,18.77
2022-08-19T03:26:41.245Z,21.97
2022-08-19T03:29:11.646Z,21.50
2022-08-19T03:31:52.473Z,20.93
2022-08-19T03:34:23.568Z,21.40
2022-08-19T03:36:51.282Z,21.40
2022-08-19T03:39:19.309Z,20.67
2022-08-19T03:41:49.933Z,21.50
2022-08-19T03:44:38.565Z,20.93
2022-08-19T03:47:07.933Z,22.43
2022-08-19T03:49:36.855Z,21.87
2022-08-19T03:52:08.156Z,21.83
2022-08-19T03:54:36.829Z,23.83
2022-08-19T03:57:05.165Z,23.33
2022-08-19T03:59:35.269Z,23.30
2022-08-19T04:02:09.886Z,22.27
2022-08-19T04:04:39.861Z,23.60
2022-08-19T04:07:07.727Z,23.97
2022-08-19T04:09:37.129Z,22.87
2022-08-19T04:12:06.444Z,23.57
2022-08-19T04:14:34.866Z,24.03
2022-08-19T04:17:04.410Z,24.17
2022-08-19T04:19:33.685Z,23.37
2022-08-19T04:22:02.917Z,22.47
2022-08-19T04:24:30.664Z,23.73
2022-08-19T04:26:59.095Z,22.93
2022-08-19T04:29:27.949Z,23.20
2022-08-19T04:31:57.608Z,23.60
2022-08-19T04:34:27.800Z,24.67
2022-08-19T04:36:58.117Z,22.90
2022-08-19T04:39:50.492Z,24.40
2022-08-19T04:42:37.297Z,24.17
2022-08-19T04:45:06.436Z,22.37
2022-08-19T04:47:47.576Z,23.30
2022-08-19T04:50:25.657Z,24.07
2022-08-19T04:52:54.371Z,23.73
2022-08-19T04:55:24.006Z,25.67
2022-08-19T04:57:51.707Z,24.90
2022-08-19T05:00:19.688Z,25.70
2022-08-19T05:02:47.555Z,26.10
2022-08-19T05:05:15.327Z,24.53
2022-08-19T05:07:43.063Z,24.93
2022-08-19T05:10:12.497Z,23.50
2022-08-19T05:12:41.620Z,24.87
2022-08-19T05:15:10.654Z,25.20
2022-08-19T05:17:39.293Z,25.40
2022-08-19T05:20:26.143Z,24.23
2022-08-19T05:22:54.187Z,24.10
2022-08-19T05:25:23.488Z,25.17
2022-08-19T05:27:52.694Z,23.57
2022-08-19T05:30:24.385Z,22.47
2022-08-19T05:33:10.960Z,23.87
2022-08-19T05:35:39.030Z,25.90
2022-08-19T05:38:08.245Z,25.00
2022-08-19T05:40:37.913Z,25.90
2022-08-19T05:43:09.176Z,26.27
2022-08-19T05:45:41.355Z,25.83
2022-08-19T05:48:12.048Z,25.77
2022-08-19T05:50:40.608Z,25.67
2022-08-19T05:53:09.752Z,24.67
2022-08-19T05:55:39.101Z,25.63
2022-08-19T05:58:08.995Z,25.17
2022-08-19T06:00:37.037Z,24.63
2022-08-19T06:03:11.371Z,24.60
2022-08-19T06:05:50.213Z,23.73
2022-08-19T06:08:20.991Z,23.70
2022-08-19T06:11:15.345Z,22.40
2022-08-19T06:13:46.084Z,25.63
2022-08-19T06:16:13.957Z,24.40
2022-08-19T06:18:41.801Z,25.73
2022-08-19T06:21:09.702Z,22.10
2022-08-19T06:23:37.435Z,22.77
2022-08-19T06:26:05.309Z,24.50
2022-08-19T06:28:33.950Z,23.90
2022-08-19T06:31:08.372Z,23.17
2022-08-19T06:33:36.101Z,24.63
2022-08-19T06:36:03.964Z,22.90
2022-08-19T06:38:31.668Z,23.33
2022-08-19T06:41:07.640Z,24.00
2022-08-19T06:43:37.036Z,23.13
2022-08-19T06:46:14.844Z,24.40
2022-08-19T06:48:45.120Z,25.10
2022-08-19T06:51:16.547Z,25.47
2022-08-19T06:53:48.080Z,25.50
2022-08-19T06:56:17.847Z,24.10
2022-08-19T06:58:45.683Z,26.10
2022-08-19T07:01:15.354Z,26.60
2022-08-19T07:03:43.219Z,25.50
2022-08-19T07:06:41.165Z,23.93
2022-08-19T07:09:04.472Z,24.83
2022-08-19T07:11:33.521Z,24.33
2022-08-19T07:14:02.122Z,23.63
2022-08-19T07:16:32.806Z,24.30
2022-08-19T07:19:11.819Z,23.47
2022-08-19T07:21:43.913Z,24.33
2022-08-19T07:24:13.216Z,22.97
2022-08-19T07:26:43.561Z,22.80
2022-08-19T07:29:13.707Z,23.53
2022-08-19T07:31:43.489Z,22.90
2022-08-19T07:34:14.414Z,23.23
2022-08-19T07:36:44.700Z,23.73
2022-08-19T07:39:15.550Z,23.70
2022-08-19T07:41:43.716Z,22.07
2022-08-19T07:44:13.380Z,22.67
2022-08-19T07:46:46.492Z,22.43
2022-08-19T07:49:20.323Z,22.00
2022-08-19T07:51:49.682Z,22.17
2022-08-19T07:54:18.325Z,21.47
2022-08-19T07:56:46.196Z,22.97
2022-08-19T07:59:14.036Z,21.50
2022-08-19T08:01:43.311Z,23.30
2022-08-19T08:04:28.479Z,21.97
2022-08-19T08:07:13.615Z,21.00
2022-08-19T08:09:44.678Z,21.67
2022-08-19T08:12:34.103Z,22.90
2022-08-19T08:15:08.375Z,21.73
2022-08-19T08:17:51.503Z,22.20
2022-08-19T08:20:20.930Z,22.87
2022-08-19T08:23:06.974Z,21.90
2022-08-19T08:25:36.216Z,20.73
2022-08-19T08:28:05.109Z,23.27
2022-08-19T08:30:36.830Z,23.53
2022-08-19T08:33:07.039Z,23.13
2022-08-19T08:35:35.491Z,23.00
2022-08-19T08:38:05.854Z,23.87
2022-08-19T08:40:44.509Z,23.10
2022-08-19T08:43:24.459Z,21.83
2022-08-19T08:45:57.042Z,23.23
2022-08-19T08:48:33.580Z,22.53
2022-08-19T08:51:07.675Z,21.87
2022-08-19T08:53:41.772Z,23.07
2022-08-19T08:56:13.340Z,22.63
2022-08-19T08:58:54.696Z,22.17
2022-08-19T09:01:23.428Z,22.53
2022-08-19T09:03:53.133Z,23.10
2022-08-19T09:06:28.017Z,22.80
2022-08-19T09:09:12.045Z,24.87
2022-08-19T09:11:53.095Z,21.53
2022-08-19T09:14:50.146Z,21.70
2022-08-19T09:17:20.112Z,21.20
2022-08-19T09:19:56.196Z,22.07
2022-08-19T09:22:26.100Z,22.57
2022-08-19T09:24:56.411Z,21.87
2022-08-19T09:27:42.325Z,21.00
2022-08-19T09:30:17.200Z,20.23
2022-08-19T09:32:46.446Z,21.80
2022-08-19T09:35:16.469Z,20.50
2022-08-19T09:37:44.879Z,20.10
2022-08-19T09:40:13.904Z,19.90
2022-08-19T09:42:49.966Z,20.87
2022-08-19T09:45:22.603Z,23.07
2022-08-19T09:47:52.143Z,20.20
2022-08-19T09:50:25.383Z,19.70
2022-08-19T09:52:57.196Z,20.63
2022-08-19T09:55:31.455Z,20.90
2022-08-19T09:58:03.365Z,18.20
2022-08-19T10:00:32.668Z,18.50
2022-08-19T10:03:01.086Z,18.27
2022-08-19T10:05:48.924Z,17.17
2022-08-19T10:08:18.487Z,16.37
2022-08-19T10:10:49.809Z,17.20
2022-08-19T10:13:22.929Z,16.60
2022-08-19T10:15:52.059Z,16.13
2022-08-19T10:18:22.011Z,17.10
2022-08-19T10:20:53.457Z,17.13
2022-08-19T10:23:22.418Z,16.70
2022-08-19T10:25:51.368Z,15.37
2022-08-19T10:28:19.661Z,15.30
2022-08-19T10:30:48.820Z,16.57
2022-08-19T10:33:38.228Z,16.43
2022-08-19T10:36:09.185Z,14.57
2022-08-19T10:38:37.022Z,15.00
2022-08-19T10:41:13.275Z,16.40
2022-08-19T10:43:41.721Z,16.40
2022-08-19T10:46:13.887Z,16.03
2022-08-19T10:48:45.389Z,15.93
2022-08-19T10:51:33.558Z,15.00
2022-08-19T10:54:02.212Z,15.27
2022-08-19T10:56:52.819Z,14.17
2022-08-19T10:59:23.251Z,14.40
2022-08-19T11:01:55.749Z,13.57
2022-08-19T11:04:28.865Z,13.10
2022-08-19T11:06:58.848Z,13.97
2022-08-19T11:09:33.705Z,13.50
2022-08-19T11:12:02.975Z,12.70
2022-08-19T11:14:34.230Z,12.80
2022-08-19T11:17:03.205Z,13.57
2022-08-19T11:19:31.492Z,12.90
2022-08-19T11:22:03.977Z,14.00
2022-08-19T11:24:32.497Z,12.70
2022-08-19T11:27:05.713Z,13.37
2022-08-19T11:29:35.335Z,12.80
2022-08-19T11:32:06.539Z,12.97
2022-08-19T11:34:35.941Z,12.17
2022-08-19T11:37:06.795Z,12.60
2022-08-19T11:39:36.416Z,11.60
2022-08-19T11:42:26.073Z,11.50
2022-08-19T11:44:54.120Z,11.77
2022-08-19T11:47:22.822Z,11.90
2022-08-19T11:49:50.583Z,11.60
2022-08-19T11:52:19.679Z,11.40
2022-08-19T11:54:47.400Z,11.80
2022-08-19T11:57:17.779Z,10.90
2022-08-19T11:59:50.854Z,12.03
2022-08-19T12:02:18.651Z,12.27
2022-08-19T12:04:46.401Z,11.90
2022-08-19T12:07:14.162Z,11.43
2022-08-19T12:09:43.775Z,11.10
2022-08-19T12:12:13.779Z,11.60
2022-08-19T12:14:41.490Z,10.80
2022-08-19T12:17:10.134Z,10.90
2022-08-19T12:19:38.541Z,11.53
2022-08-19T12:22:08.328Z,10.87
2022-08-19T12:24:36.828Z,11.07
2022-08-19T12:27:06.397Z,12.73
2022-08-19T12:29:41.106Z,11.43
2022-08-19T12:32:10.410Z,11.90
2022-08-19T12:34:40.753Z,11.30
2022-08-19T12:37:09.038Z,11.70
2022-08-19T12:39:39.139Z,12.07
2022-08-19T12:42:10.046Z,12.90
2022-08-19T12:44:38.704Z,11.77
2022-08-19T12:47:10.807Z,12.80
2022-08-19T12:49:53.839Z,12.67
2022-08-19T12:52:24.672Z,12.00
2022-08-19T12:54:54.661Z,11.60
2022-08-19T12:57:31.965Z,12.97
2022-08-19T13:00:04.851Z,11.90
2022-08-19T13:02:38.804Z,14.03
2022-08-19T13:05:09.140Z,15.13
2022-08-19T13:07:38.237Z,13.83
2022-08-19T13:10:07.744Z,14.70
2022-08-19T13:12:37.056Z,15.30
2022-08-19T13:15:10.908Z,16.60
2022-08-19T13:17:40.316Z,17.40
2022-08-19T13:20:09.694Z,17.00
2022-08-19T13:22:38.159Z,18.07
2022-08-19T13:25:06.680Z,17.97
2022-08-19T13:27:36.494Z,20.10
2022-08-19T13:30:24.342Z,22.40
2022-08-19T13:33:09.799Z,23.23
2022-08-19T13:35:37.548Z,23.80
2022-08-19T13:38:05.794Z,24.80
2022-08-19T13:40:41.322Z,23.30
2022-08-19T13:43:22.420Z,24.67
2022-08-19T13:45:51.242Z,25.63
2022-08-19T13:48:19.272Z,26.20
2022-08-19T13:50:49.085Z,28.30
2022-08-19T13:53:18.740Z,28.90
2022-08-19T13:55:47.480Z,28.60
2022-08-19T13:58:16.580Z,31.70
2022-08-19T14:00:46.788Z,32.50
2022-08-19T14:03:15.017Z,31.93
2022-08-19T14:05:42.819Z,29.83
2022-08-19T14:08:10.975Z,34.50
2022-08-19T14:10:38.823Z,33.07
2022-08-19T14:13:06.755Z,31.57
2022-08-19T14:15:36.158Z,33.10
2022-08-19T14:18:03.954Z,35.97
2022-08-19T14:20:31.758Z,32.10
2022-08-19T14:23:00.424Z,34.10
2022-08-19T14:25:30.848Z,30.73
2022-08-19T14:27:59.319Z,29.80
2022-08-19T14:30:29.181Z,30.63
2022-08-19T14:33:00.183Z,29.77
2022-08-19T14:35:29.924Z,28.07
2022-08-19T14:37:58.980Z,25.63
2022-08-19T14:40:29.630Z,26.80
2022-08-19T14:43:04.688Z,26.10
2022-08-19T14:45:36.808Z,24.80
2022-08-19T14:48:07.302Z,23.73
2022-08-19T14:50:37.007Z,25.10
2022-08-19T14:53:12.061Z,24.07
2022-08-19T14:55:43.574Z,22.50
2022-08-19T14:58:28.468Z,22.00
2022-08-19T15:00:59.431Z,21.27
2022-08-19T15:03:28.854Z,20.70
2022-08-19T15:05:58.379Z,22.30
2022-08-19T15:08:27.078Z,20.07
2022-08-19T15:10:55.127Z,18.83
2022-08-19T15:13:23.394Z,18.40
2022-08-19T15:15:52.663Z,20.13
2022-08-19T15:18:21.344Z,18.87
2022-08-19T15:20:50.847Z,19.10
2022-08-19T15:23:20.371Z,17.80
2022-08-19T15:25:48.143Z,20.03
2022-08-19T15:28:17.300Z,18.10
2022-08-19T15:30:45.408Z,16.20
2022-08-19T15:33:15.206Z,18.30
2022-08-19T15:35:43.589Z,17.70
2022-08-19T15:38:13.927Z,19.20
2022-08-19T15:40:42.754Z,18.47
2022-08-19T15:43:11.478Z,19.37
2022-08-19T15:45:40.258Z,19.13
2022-08-19T15:48:08.010Z,19.30
2022-08-19T15:50:35.856Z,20.13
2022-08-19T15:53:06.254Z,19.30
2022-08-19T15:55:38.270Z,18.60
2022-08-19T15:58:38.174Z,17.70
2022-08-19T16:01:26.837Z,17.83
2022-08-19T16:04:15.585Z,16.47
2022-08-19T16:06:47.541Z,17.10
2022-08-19T16:09:16.578Z,16.23
2022-08-19T16:11:56.523Z,15.70
2022-08-19T16:14:26.656Z,14.07
2022-08-19T16:16:56.680Z,13.80
2022-08-19T16:19:25.409Z,15.60
2022-08-19T16:21:55.681Z,15.97
2022-08-19T16:24:25.951Z,16.90
2022-08-19T16:26:55.958Z,17.77
2022-08-19T16:29:33.987Z,16.30
2022-08-19T16:32:03.308Z,18.70
2022-08-19T16:34:31.563Z,19.10
2022-08-19T16:36:59.449Z,17.90
2022-08-19T16:39:27.178Z,18.50
2022-08-19T16:41:56.347Z,16.50
2022-08-19T16:44:24.341Z,16.60
2022-08-19T16:46:58.945Z,17.70
2022-08-19T16:49:53.748Z,17.50
2022-08-19T16:52:16.171Z,18.90
2022-08-19T16:54:44.617Z,20.57
2022-08-19T16:57:14.730Z,19.67
2022-08-19T16:59:48.998Z,19.23
2022-08-19T17:02:18.099Z,21.33
2022-08-19T17:04:55.750Z,20.70
2022-08-19T17:07:26.249Z,21.30
2022-08-19T17:09:55.090Z,21.83
2022-08-19T17:12:30.213Z,22.70
2022-08-19T17:14:59.491Z,23.70
2022-08-19T17:17:29.354Z,23.67
2022-08-19T17:19:57.429Z,25.40
2022-08-19T17:22:25.154Z,24.13
2022-08-19T17:24:52.967Z,23.33
2022-08-19T17:27:25.471Z,23.80
2022-08-19T17:29:53.313Z,24.80
2022-08-19T17:32:25.209Z,25.47
2022-08-19T17:34:54.053Z,24.67
2022-08-19T17:37:21.926Z,24.53
2022-08-19T17:39:50.015Z,26.57
2022-08-19T17:42:17.867Z,24.70
2022-08-19T17:44:50.869Z,23.77
2022-08-19T17:47:21.076Z,25.93
2022-08-19T17:49:48.865Z,23.00
2022-08-19T17:52:16.662Z,21.40
2022-08-19T17:54:44.577Z,23.03
2022-08-19T17:57:14.095Z,22.63
2022-08-19T17:59:41.992Z,22.67
2022-08-19T18:02:12.477Z,22.83
2022-08-19T18:04:41.932Z,20.63
2022-08-19T18:07:11.945Z,22.20
2022-08-19T18:09:43.004Z,21.00
2022-08-19T18:12:17.859Z,21.20
2022-08-19T18:14:46.368Z,20.00
2022-08-19T18:17:19.325Z,20.40
2022-08-19T18:19:48.490Z,19.90
2022-08-19T18:22:24.289Z,20.50
2022-08-19T18:24:52.667Z,20.23
2022-08-19T18:27:20.809Z,22.50
2022-08-19T18:29:48.789Z,20.50
2022-08-19T18:32:23.639Z,20.60
2022-08-19T18:34:53.726Z,22.03
2022-08-19T18:37:22.205Z,20.80
2022-08-19T18:40:21.867Z,22.17
2022-08-19T18:43:07.585Z,21.90
2022-08-19T18:45:52.953Z,20.00
2022-08-19T18:48:44.422Z,21.03
2022-08-19T18:51:17.596Z,22.13
2022-08-19T18:53:50.207Z,20.40
2022-08-19T18:56:20.408Z,20.70
2022-08-19T19:01:52.496Z,20.63
2022-08-19T19:04:26.051Z,21.07
2022-08-19T19:06:54.422Z,20.17
2022-08-19T19:09:25.756Z,22.17
2022-08-19T19:23:05.044Z,20.77
2022-08-19T19:25:49.561Z,21.80
2022-08-19T19:28:25.745Z,22.10
2022-08-19T19:30:54.717Z,23.57
2022-08-19T19:33:23.090Z,21.07
2022-08-19T19:35:50.927Z,21.43
2022-08-19T19:38:20.048Z,21.30
2022-08-19T19:40:47.807Z,20.90
2022-08-19T19:43:18.395Z,23.03
2022-08-19T19:45:48.209Z,20.80
2022-08-19T19:48:16.535Z,19.83
2022-08-19T19:50:45.735Z,22.30
2022-08-19T19:53:15.039Z,21.97
2022-08-19T19:55:44.249Z,21.87
2022-08-19T19:58:12.750Z,20.97
2022-08-19T20:00:40.821Z,21.27
2022-08-19T20:03:09.034Z,20.00
2022-08-19T20:05:36.923Z,21.00
2022-08-19T20:08:23.501Z,21.33
2022-08-19T20:10:52.912Z,18.77
2022-08-19T20:13:21.729Z,17.13
2022-08-19T20:15:49.475Z,14.47
2022-08-19T20:18:18.051Z,15.83
2022-08-19T20:20:50.196Z,13.23
2022-08-19T20:23:18.051Z,12.10
2022-08-19T20:25:46.514Z,10.93
2022-08-19T20:28:15.827Z,13.23
2022-08-19T20:30:46.466Z,13.10
2022-08-19T20:33:14.815Z,14.40
2022-08-19T20:35:44.748Z,12.57
2022-08-19T20:38:12.536Z,12.13
2022-08-19T20:40:41.247Z,10.37
2022-08-19T20:43:10.049Z,10.47
2022-08-19T20:45:39.808Z,8.53
2022-08-19T20:48:12.161Z,7.97
2022-08-19T20:50:40.192Z,7.80
2022-08-19T20:53:13.137Z,6.97
2022-08-19T20:55:44.326Z,6.90
2022-08-19T20:58:13.467Z,6.50
2022-08-19T21:00:45.578Z,6.30
2022-08-19T21:03:14.451Z,6.20
2022-08-19T21:05:42.209Z,6.10
2022-08-19T21:08:10.001Z,6.30
2022-08-19T21:10:42.179Z,5.73
2022-08-19T21:13:10.181Z,4.67
2022-08-19T21:15:40.528Z,5.03
2022-08-19T21:18:10.785Z,4.70
2022-08-19T21:20:38.953Z,5.00
2022-08-19T21:23:10.271Z,4.70
2022-08-19T21:25:38.855Z,5.17
2022-08-19T21:28:07.191Z,4.40
2022-08-19T21:30:35.597Z,4.70
2022-08-19T21:33:03.975Z,4.70
2022-08-19T21:35:33.950Z,4.13
2022-08-19T21:38:01.930Z,4.43
2022-08-19T21:40:30.084Z,4.73
2022-08-19T21:42:58.158Z,4.03
2022-08-19T21:45:26.087Z,3.70
2022-08-19T21:47:54.121Z,3.70
2022-08-19T21:50:25.805Z,4.10
2022-08-19T21:52:57.420Z,4.00
2022-08-19T21:55:25.352Z,3.87
2022-08-19T21:57:53.322Z,3.47
2022-08-19T22:00:25.019Z,3.30
2022-08-19T22:02:53.162Z,2.80
2022-08-19T22:05:23.064Z,3.10
2022-08-19T22:07:50.992Z,2.57
2022-08-19T22:10:21.439Z,2.70
2022-08-19T22:12:51.717Z,2.50
2022-08-19T22:15:21.471Z,2.47
2022-08-19T22:17:49.766Z,3.07
2022-08-19T22:20:19.709Z,2.00
2022-08-19T22:22:50.190Z,2.70
2022-08-19T22:25:31.509Z,2.23
2022-08-19T22:28:01.688Z,2.00
2022-08-19T22:30:33.333Z,2.30
2022-08-19T22:33:04.668Z,2.43
2022-08-19T22:35:34.912Z,2.20
2022-08-19T22:38:03.526Z,3.00
2022-08-19T22:40:32.702Z,3.07
2022-08-19T22:43:02.147Z,2.50
2022-08-19T22:45:30.705Z,2.43
2022-08-19T22:47:58.910Z,1.97
2022-08-19T22:50:26.916Z,2.50
2022-08-19T22:52:57.783Z,2.60
2022-08-19T22:55:26.355Z,2.57
2022-08-19T22:57:55.884Z,2.63
2022-08-19T23:00:25.834Z,2.37
2022-08-19T23:02:55.122Z,2.80
2022-08-19T23:05:24.423Z,2.30
2022-08-19T23:07:53.072Z,2.60
2022-08-19T23:10:27.209Z,2.83
2022-08-19T23:12:59.076Z,2.80
2022-08-19T23:15:29.945Z,2.37
2022-08-19T23:17:59.922Z,2.40
2022-08-19T23:20:30.920Z,2.97
2022-08-19T23:22:59.249Z,2.27
2022-08-19T23:25:29.916Z,2.77
2022-08-19T23:28:16.809Z,2.83
2022-08-19T23:30:46.429Z,2.90
2022-08-19T23:33:21.612Z,2.80
2022-08-19T23:35:49.771Z,2.50
2022-08-19T23:38:18.987Z,2.60
2022-08-19T23:40:47.783Z,2.50
2022-08-19T23:43:24.204Z,2.97
2022-08-19T23:45:53.783Z,2.30
2022-08-19T23:48:26.035Z,2.30
2022-08-19T23:50:57.224Z,2.53
2022-08-19T23:53:25.376Z,2.30
2022-08-19T23:55:53.280Z,2.20
2022-08-19T23:58:23.310Z,2.10
